sensor_id;sensor_type;location;lat;lon;timestamp;P1;durP1;ratioP1;P2;durP2;ratioP2
12383;SDS011;6256;63.808;20.336;2022-10-16T00:01:59;0.63;;;0.60;;
12383;SDS011;6256;63.808;20.336;2022-10-16T00:04:25;0.60;;;0.60;;
12383;SDS011;6256;63.808;20.336;2022-10-16T00:06:51;0.90;;;0.70;;
12383;SDS011;6256;63.808;20.336;2022-10-16T00:09:16;0.70;;;0.70;;
12383;SDS011;6256;63.808;20.336;2022-10-16T00:11:42;0.60;;;0.60;;
12383;SDS011;6256;63.808;20.336;2022-10-16T00:14:12;0.40;;;0.40;;
12383;SDS011;6256;63.808;20.336;2022-10-16T00:16:39;0.60;;;0.60;;
12383;SDS011;6256;63.808;20.336;2022-10-16T00:19:06;0.50;;;0.50;;
12383;SDS011;6256;63.808;20.336;2022-10-16T00:21:32;0.40;;;0.40;;
12383;SDS011;6256;63.808;20.336;2022-10-16T00:23:59;0.40;;;0.40;;
12383;SDS011;6256;63.808;20.336;2022-10-16T00:26:31;0.40;;;0.40;;
12383;SDS011;6256;63.808;20.336;2022-10-16T00:28:59;0.57;;;0.50;;
12383;SDS011;6256;63.808;20.336;2022-10-16T00:31:24;0.40;;;0.40;;
12383;SDS011;6256;63.808;20.336;2022-10-16T00:33:51;0.50;;;0.50;;
12383;SDS011;6256;63.808;20.336;2022-10-16T00:36:18;0.50;;;0.50;;
12383;SDS011;6256;63.808;20.336;2022-10-16T00:38:45;0.30;;;0.30;;
12383;SDS011;6256;63.808;20.336;2022-10-16T00:41:12;0.40;;;0.40;;
12383;SDS011;6256;63.808;20.336;2022-10-16T00:43:44;1.37;;;0.50;;
12383;SDS011;6256;63.808;20.336;2022-10-16T00:46:24;0.50;;;0.50;;
12383;SDS011;6256;63.808;20.336;2022-10-16T00:54:03;1.07;;;1.00;;
12383;SDS011;6256;63.808;20.336;2022-10-16T00:56:33;0.50;;;0.50;;
12383;SDS011;6256;63.808;20.336;2022-10-16T00:58:58;0.53;;;0.53;;
12383;SDS011;6256;63.808;20.336;2022-10-16T01:01:26;0.77;;;0.70;;
12383;SDS011;6256;63.808;20.336;2022-10-16T01:03:53;0.57;;;0.57;;
12383;SDS011;6256;63.808;20.336;2022-10-16T01:06:23;0.87;;;0.47;;
12383;SDS011;6256;63.808;20.336;2022-10-16T01:09:11;0.57;;;0.40;;
12383;SDS011;6256;63.808;20.336;2022-10-16T01:11:45;0.40;;;0.40;;
12383;SDS011;6256;63.808;20.336;2022-10-16T01:17:23;0.33;;;0.33;;
12383;SDS011;6256;63.808;20.336;2022-10-16T01:28:34;0.53;;;0.50;;
12383;SDS011;6256;63.808;20.336;2022-10-16T01:31:04;0.40;;;0.40;;
12383;SDS011;6256;63.808;20.336;2022-10-16T01:33:35;0.57;;;0.57;;
12383;SDS011;6256;63.808;20.336;2022-10-16T01:36:25;1.03;;;0.43;;
12383;SDS011;6256;63.808;20.336;2022-10-16T01:38:56;0.60;;;0.50;;
12383;SDS011;6256;63.808;20.336;2022-10-16T01:41:26;0.47;;;0.47;;
12383;SDS011;6256;63.808;20.336;2022-10-16T01:43:58;0.40;;;0.40;;
12383;SDS011;6256;63.808;20.336;2022-10-16T01:46:39;1.60;;;0.90;;
12383;SDS011;6256;63.808;20.336;2022-10-16T01:49:08;0.40;;;0.40;;
12383;SDS011;6256;63.808;20.336;2022-10-16T01:51:35;0.77;;;0.50;;
12383;SDS011;6256;63.808;20.336;2022-10-16T01:54:02;0.40;;;0.40;;
12383;SDS011;6256;63.808;20.336;2022-10-16T01:56:31;0.57;;;0.50;;
12383;SDS011;6256;63.808;20.336;2022-10-16T01:59:00;0.40;;;0.40;;
12383;SDS011;6256;63.808;20.336;2022-10-16T02:01:36;0.40;;;0.40;;
12383;SDS011;6256;63.808;20.336;2022-10-16T02:04:13;0.40;;;0.40;;
12383;SDS011;6256;63.808;20.336;2022-10-16T02:06:42;0.43;;;0.43;;
12383;SDS011;6256;63.808;20.336;2022-10-16T02:09:08;0.33;;;0.33;;
12383;SDS011;6256;63.808;20.336;2022-10-16T02:11:34;0.30;;;0.30;;
12383;SDS011;6256;63.808;20.336;2022-10-16T02:14:04;0.70;;;0.70;;
12383;SDS011;6256;63.808;20.336;2022-10-16T02:16:38;0.50;;;0.50;;
12383;SDS011;6256;63.808;20.336;2022-10-16T02:19:06;0.37;;;0.37;;
12383;SDS011;6256;63.808;20.336;2022-10-16T02:21:39;0.43;;;0.43;;
12383;SDS011;6256;63.808;20.336;2022-10-16T02:26:57;3.30;;;0.50;;
12383;SDS011;6256;63.808;20.336;2022-10-16T02:29:39;0.50;;;0.50;;
12383;SDS011;6256;63.808;20.336;2022-10-16T02:32:10;0.60;;;0.60;;
12383;SDS011;6256;63.808;20.336;2022-10-16T02:34:39;0.40;;;0.40;;
12383;SDS011;6256;63.808;20.336;2022-10-16T02:37:05;0.40;;;0.40;;
12383;SDS011;6256;63.808;20.336;2022-10-16T02:39:33;0.40;;;0.40;;
12383;SDS011;6256;63.808;20.336;2022-10-16T02:41:59;0.47;;;0.47;;
12383;SDS011;6256;63.808;20.336;2022-10-16T02:44:25;0.53;;;0.40;;
12383;SDS011;6256;63.808;20.336;2022-10-16T02:46:50;0.37;;;0.37;;
12383;SDS011;6256;63.808;20.336;2022-10-16T02:49:16;0.83;;;0.63;;
12383;SDS011;6256;63.808;20.336;2022-10-16T02:51:43;0.50;;;0.50;;
12383;SDS011;6256;63.808;20.336;2022-10-16T02:54:08;0.40;;;0.40;;
12383;SDS011;6256;63.808;20.336;2022-10-16T02:56:34;0.50;;;0.50;;
12383;SDS011;6256;63.808;20.336;2022-10-16T02:59:00;0.20;;;0.20;;
12383;SDS011;6256;63.808;20.336;2022-10-16T03:01:25;0.50;;;0.50;;
12383;SDS011;6256;63.808;20.336;2022-10-16T03:03:51;0.30;;;0.30;;
12383;SDS011;6256;63.808;20.336;2022-10-16T03:06:17;0.60;;;0.60;;
12383;SDS011;6256;63.808;20.336;2022-10-16T03:08:42;0.60;;;0.60;;
12383;SDS011;6256;63.808;20.336;2022-10-16T03:11:08;0.70;;;0.70;;
12383;SDS011;6256;63.808;20.336;2022-10-16T03:13:34;0.90;;;0.90;;
12383;SDS011;6256;63.808;20.336;2022-10-16T03:16:01;0.60;;;0.60;;
12383;SDS011;6256;63.808;20.336;2022-10-16T03:18:29;0.60;;;0.60;;
12383;SDS011;6256;63.808;20.336;2022-10-16T03:20:55;0.60;;;0.60;;
12383;SDS011;6256;63.808;20.336;2022-10-16T03:23:21;0.70;;;0.67;;
12383;SDS011;6256;63.808;20.336;2022-10-16T03:25:47;0.50;;;0.50;;
12383;SDS011;6256;63.808;20.336;2022-10-16T03:28:12;1.23;;;0.80;;
12383;SDS011;6256;63.808;20.336;2022-10-16T03:30:38;0.40;;;0.40;;
12383;SDS011;6256;63.808;20.336;2022-10-16T03:33:04;0.50;;;0.50;;
12383;SDS011;6256;63.808;20.336;2022-10-16T03:35:31;0.40;;;0.40;;
12383;SDS011;6256;63.808;20.336;2022-10-16T03:37:58;0.60;;;0.50;;
12383;SDS011;6256;63.808;20.336;2022-10-16T03:40:23;0.40;;;0.40;;
12383;SDS011;6256;63.808;20.336;2022-10-16T03:42:49;0.87;;;0.50;;
12383;SDS011;6256;63.808;20.336;2022-10-16T03:45:15;1.23;;;0.63;;
12383;SDS011;6256;63.808;20.336;2022-10-16T03:47:41;0.40;;;0.40;;
12383;SDS011;6256;63.808;20.336;2022-10-16T03:50:06;1.80;;;0.47;;
12383;SDS011;6256;63.808;20.336;2022-10-16T03:52:32;0.40;;;0.40;;
12383;SDS011;6256;63.808;20.336;2022-10-16T03:54:58;0.53;;;0.53;;
12383;SDS011;6256;63.808;20.336;2022-10-16T03:57:24;0.50;;;0.43;;
12383;SDS011;6256;63.808;20.336;2022-10-16T03:59:49;0.60;;;0.40;;
12383;SDS011;6256;63.808;20.336;2022-10-16T04:02:15;1.30;;;0.50;;
12383;SDS011;6256;63.808;20.336;2022-10-16T04:04:41;0.40;;;0.40;;
12383;SDS011;6256;63.808;20.336;2022-10-16T04:07:07;0.30;;;0.30;;
12383;SDS011;6256;63.808;20.336;2022-10-16T04:09:33;0.40;;;0.40;;
12383;SDS011;6256;63.808;20.336;2022-10-16T04:11:59;0.30;;;0.30;;
12383;SDS011;6256;63.808;20.336;2022-10-16T04:14:24;0.50;;;0.33;;
12383;SDS011;6256;63.808;20.336;2022-10-16T04:16:50;0.73;;;0.73;;
12383;SDS011;6256;63.808;20.336;2022-10-16T04:19:16;0.63;;;0.53;;
12383;SDS011;6256;63.808;20.336;2022-10-16T04:21:41;0.60;;;0.60;;
12383;SDS011;6256;63.808;20.336;2022-10-16T04:24:07;0.70;;;0.70;;
12383;SDS011;6256;63.808;20.336;2022-10-16T04:26:33;0.70;;;0.70;;
12383;SDS011;6256;63.808;20.336;2022-10-16T04:28:58;0.53;;;0.53;;
12383;SDS011;6256;63.808;20.336;2022-10-16T04:31:24;0.90;;;0.80;;
12383;SDS011;6256;63.808;20.336;2022-10-16T04:33:50;0.67;;;0.67;;
12383;SDS011;6256;63.808;20.336;2022-10-16T04:36:15;1.03;;;0.93;;
12383;SDS011;6256;63.808;20.336;2022-10-16T04:38:41;0.60;;;0.60;;
12383;SDS011;6256;63.808;20.336;2022-10-16T04:41:07;5.50;;;0.90;;
12383;SDS011;6256;63.808;20.336;2022-10-16T04:43:33;0.63;;;0.63;;
12383;SDS011;6256;63.808;20.336;2022-10-16T04:45:59;0.63;;;0.63;;
12383;SDS011;6256;63.808;20.336;2022-10-16T04:48:25;0.60;;;0.60;;
12383;SDS011;6256;63.808;20.336;2022-10-16T04:50:51;2.60;;;0.60;;
12383;SDS011;6256;63.808;20.336;2022-10-16T04:53:17;1.47;;;0.70;;
12383;SDS011;6256;63.808;20.336;2022-10-16T04:55:43;1.90;;;0.60;;
12383;SDS011;6256;63.808;20.336;2022-10-16T04:58:08;0.80;;;0.63;;
12383;SDS011;6256;63.808;20.336;2022-10-16T05:00:35;1.03;;;0.90;;
12383;SDS011;6256;63.808;20.336;2022-10-16T05:03:04;0.87;;;0.80;;
12383;SDS011;6256;63.808;20.336;2022-10-16T05:05:32;0.60;;;0.60;;
12383;SDS011;6256;63.808;20.336;2022-10-16T05:07:58;0.80;;;0.60;;
12383;SDS011;6256;63.808;20.336;2022-10-16T05:10:24;0.60;;;0.60;;
12383;SDS011;6256;63.808;20.336;2022-10-16T05:12:50;0.70;;;0.70;;
12383;SDS011;6256;63.808;20.336;2022-10-16T05:15:16;0.43;;;0.43;;
12383;SDS011;6256;63.808;20.336;2022-10-16T05:17:42;1.47;;;0.60;;
12383;SDS011;6256;63.808;20.336;2022-10-16T05:20:08;0.60;;;0.60;;
12383;SDS011;6256;63.808;20.336;2022-10-16T05:22:34;0.40;;;0.40;;
12383;SDS011;6256;63.808;20.336;2022-10-16T05:24:59;0.40;;;0.40;;
12383;SDS011;6256;63.808;20.336;2022-10-16T05:27:25;0.43;;;0.43;;
12383;SDS011;6256;63.808;20.336;2022-10-16T05:29:51;0.60;;;0.50;;
12383;SDS011;6256;63.808;20.336;2022-10-16T05:32:17;0.30;;;0.30;;
12383;SDS011;6256;63.808;20.336;2022-10-16T05:34:44;0.50;;;0.50;;
12383;SDS011;6256;63.808;20.336;2022-10-16T05:37:10;0.50;;;0.50;;
12383;SDS011;6256;63.808;20.336;2022-10-16T05:39:36;0.50;;;0.50;;
12383;SDS011;6256;63.808;20.336;2022-10-16T05:42:03;0.47;;;0.47;;
12383;SDS011;6256;63.808;20.336;2022-10-16T05:44:29;0.50;;;0.50;;
12383;SDS011;6256;63.808;20.336;2022-10-16T05:46:55;1.90;;;0.67;;
12383;SDS011;6256;63.808;20.336;2022-10-16T05:49:20;0.37;;;0.37;;
12383;SDS011;6256;63.808;20.336;2022-10-16T05:51:46;1.30;;;0.70;;
12383;SDS011;6256;63.808;20.336;2022-10-16T05:54:12;0.80;;;0.50;;
12383;SDS011;6256;63.808;20.336;2022-10-16T05:56:38;0.87;;;0.50;;
12383;SDS011;6256;63.808;20.336;2022-10-16T05:59:04;0.67;;;0.53;;
12383;SDS011;6256;63.808;20.336;2022-10-16T06:01:30;0.60;;;0.60;;
12383;SDS011;6256;63.808;20.336;2022-10-16T06:03:56;0.40;;;0.40;;
12383;SDS011;6256;63.808;20.336;2022-10-16T06:06:23;1.60;;;0.60;;
12383;SDS011;6256;63.808;20.336;2022-10-16T06:08:52;1.90;;;0.50;;
12383;SDS011;6256;63.808;20.336;2022-10-16T06:11:29;0.50;;;0.50;;
12383;SDS011;6256;63.808;20.336;2022-10-16T06:13:56;0.57;;;0.40;;
12383;SDS011;6256;63.808;20.336;2022-10-16T06:16:23;0.40;;;0.40;;
12383;SDS011;6256;63.808;20.336;2022-10-16T06:18:50;1.10;;;0.50;;
12383;SDS011;6256;63.808;20.336;2022-10-16T06:21:18;0.60;;;0.50;;
12383;SDS011;6256;63.808;20.336;2022-10-16T06:23:46;0.40;;;0.40;;
12383;SDS011;6256;63.808;20.336;2022-10-16T06:26:14;0.60;;;0.60;;
12383;SDS011;6256;63.808;20.336;2022-10-16T06:28:42;0.60;;;0.60;;
12383;SDS011;6256;63.808;20.336;2022-10-16T06:31:08;0.70;;;0.70;;
12383;SDS011;6256;63.808;20.336;2022-10-16T06:33:36;0.43;;;0.43;;
12383;SDS011;6256;63.808;20.336;2022-10-16T06:36:02;0.57;;;0.57;;
12383;SDS011;6256;63.808;20.336;2022-10-16T06:38:30;0.60;;;0.60;;
12383;SDS011;6256;63.808;20.336;2022-10-16T06:40:57;0.57;;;0.53;;
12383;SDS011;6256;63.808;20.336;2022-10-16T06:43:23;1.33;;;0.60;;
12383;SDS011;6256;63.808;20.336;2022-10-16T06:45:55;0.50;;;0.50;;
12383;SDS011;6256;63.808;20.336;2022-10-16T06:48:22;0.60;;;0.60;;
12383;SDS011;6256;63.808;20.336;2022-10-16T06:51:02;0.43;;;0.43;;
12383;SDS011;6256;63.808;20.336;2022-10-16T06:53:30;0.43;;;0.43;;
12383;SDS011;6256;63.808;20.336;2022-10-16T06:55:57;0.57;;;0.57;;
12383;SDS011;6256;63.808;20.336;2022-10-16T06:58:23;0.70;;;0.70;;
12383;SDS011;6256;63.808;20.336;2022-10-16T07:00:54;0.70;;;0.63;;
12383;SDS011;6256;63.808;20.336;2022-10-16T07:03:21;0.60;;;0.60;;
12383;SDS011;6256;63.808;20.336;2022-10-16T07:05:47;2.23;;;0.80;;
12383;SDS011;6256;63.808;20.336;2022-10-16T07:08:12;0.70;;;0.70;;
12383;SDS011;6256;63.808;20.336;2022-10-16T07:10:38;0.60;;;0.60;;
12383;SDS011;6256;63.808;20.336;2022-10-16T07:13:04;0.70;;;0.70;;
12383;SDS011;6256;63.808;20.336;2022-10-16T07:15:30;1.10;;;0.80;;
12383;SDS011;6256;63.808;20.336;2022-10-16T07:17:56;0.70;;;0.70;;
12383;SDS011;6256;63.808;20.336;2022-10-16T07:20:21;0.80;;;0.70;;
12383;SDS011;6256;63.808;20.336;2022-10-16T07:22:47;0.80;;;0.80;;
12383;SDS011;6256;63.808;20.336;2022-10-16T07:25:13;0.50;;;0.50;;
12383;SDS011;6256;63.808;20.336;2022-10-16T07:27:39;0.50;;;0.50;;
12383;SDS011;6256;63.808;20.336;2022-10-16T07:30:05;0.57;;;0.57;;
12383;SDS011;6256;63.808;20.336;2022-10-16T07:32:31;0.60;;;0.60;;
12383;SDS011;6256;63.808;20.336;2022-10-16T07:34:57;1.33;;;0.50;;
12383;SDS011;6256;63.808;20.336;2022-10-16T07:37:23;0.53;;;0.53;;
12383;SDS011;6256;63.808;20.336;2022-10-16T07:39:49;2.10;;;0.70;;
12383;SDS011;6256;63.808;20.336;2022-10-16T07:42:14;1.87;;;0.57;;
12383;SDS011;6256;63.808;20.336;2022-10-16T07:44:40;1.47;;;0.90;;
12383;SDS011;6256;63.808;20.336;2022-10-16T07:47:06;0.67;;;0.67;;
12383;SDS011;6256;63.808;20.336;2022-10-16T07:49:32;2.33;;;0.97;;
12383;SDS011;6256;63.808;20.336;2022-10-16T07:51:57;1.87;;;1.27;;
12383;SDS011;6256;63.808;20.336;2022-10-16T07:54:23;1.00;;;0.90;;
12383;SDS011;6256;63.808;20.336;2022-10-16T07:56:49;0.73;;;0.70;;
12383;SDS011;6256;63.808;20.336;2022-10-16T07:59:15;0.70;;;0.70;;
12383;SDS011;6256;63.808;20.336;2022-10-16T08:01:40;1.03;;;1.00;;
12383;SDS011;6256;63.808;20.336;2022-10-16T08:04:10;1.27;;;0.97;;
12383;SDS011;6256;63.808;20.336;2022-10-16T08:06:37;0.90;;;0.87;;
12383;SDS011;6256;63.808;20.336;2022-10-16T08:09:04;1.63;;;1.40;;
12383;SDS011;6256;63.808;20.336;2022-10-16T08:11:31;3.43;;;1.30;;
12383;SDS011;6256;63.808;20.336;2022-10-16T08:13:57;1.30;;;1.20;;
12383;SDS011;6256;63.808;20.336;2022-10-16T08:16:22;2.07;;;1.30;;
12383;SDS011;6256;63.808;20.336;2022-10-16T08:18:48;3.13;;;1.67;;
12383;SDS011;6256;63.808;20.336;2022-10-16T08:21:17;1.93;;;1.30;;
12383;SDS011;6256;63.808;20.336;2022-10-16T08:23:44;2.13;;;1.33;;
12383;SDS011;6256;63.808;20.336;2022-10-16T08:26:10;3.70;;;1.50;;
12383;SDS011;6256;63.808;20.336;2022-10-16T08:28:37;4.27;;;1.20;;
12383;SDS011;6256;63.808;20.336;2022-10-16T08:31:09;3.03;;;1.07;;
12383;SDS011;6256;63.808;20.336;2022-10-16T08:33:37;2.40;;;1.00;;
12383;SDS011;6256;63.808;20.336;2022-10-16T08:36:04;3.70;;;1.43;;
12383;SDS011;6256;63.808;20.336;2022-10-16T08:38:31;3.10;;;0.93;;
12383;SDS011;6256;63.808;20.336;2022-10-16T08:41:02;1.50;;;1.10;;
12383;SDS011;6256;63.808;20.336;2022-10-16T08:44:05;1.10;;;1.10;;
12383;SDS011;6256;63.808;20.336;2022-10-16T08:46:39;2.10;;;1.10;;
12383;SDS011;6256;63.808;20.336;2022-10-16T08:49:11;0.90;;;0.80;;
12383;SDS011;6256;63.808;20.336;2022-10-16T08:51:40;2.70;;;0.80;;
12383;SDS011;6256;63.808;20.336;2022-10-16T08:56:48;1.77;;;0.80;;
12383;SDS011;6256;63.808;20.336;2022-10-16T08:59:14;0.60;;;0.60;;
12383;SDS011;6256;63.808;20.336;2022-10-16T09:01:44;0.73;;;0.70;;
12383;SDS011;6256;63.808;20.336;2022-10-16T09:10:17;0.60;;;0.60;;
12383;SDS011;6256;63.808;20.336;2022-10-16T09:12:46;0.57;;;0.57;;
12383;SDS011;6256;63.808;20.336;2022-10-16T09:15:23;0.90;;;0.80;;
12383;SDS011;6256;63.808;20.336;2022-10-16T09:20:20;0.73;;;0.73;;
12383;SDS011;6256;63.808;20.336;2022-10-16T09:23:12;0.60;;;0.60;;
12383;SDS011;6256;63.808;20.336;2022-10-16T09:25:56;1.00;;;0.77;;
12383;SDS011;6256;63.808;20.336;2022-10-16T09:28:24;1.17;;;0.70;;
12383;SDS011;6256;63.808;20.336;2022-10-16T09:30:50;1.13;;;0.87;;
12383;SDS011;6256;63.808;20.336;2022-10-16T09:33:19;0.80;;;0.80;;
12383;SDS011;6256;63.808;20.336;2022-10-16T09:35:51;1.13;;;1.03;;
12383;SDS011;6256;63.808;20.336;2022-10-16T09:38:23;1.63;;;0.67;;
12383;SDS011;6256;63.808;20.336;2022-10-16T09:40:55;0.77;;;0.77;;
12383;SDS011;6256;63.808;20.336;2022-10-16T09:46:07;1.43;;;0.80;;
12383;SDS011;6256;63.808;20.336;2022-10-16T09:48:57;1.33;;;1.07;;
12383;SDS011;6256;63.808;20.336;2022-10-16T09:56:35;2.07;;;1.40;;
12383;SDS011;6256;63.808;20.336;2022-10-16T09:59:45;2.60;;;1.43;;
12383;SDS011;6256;63.808;20.336;2022-10-16T10:02:03;1.60;;;1.50;;
12383;SDS011;6256;63.808;20.336;2022-10-16T10:04:39;5.13;;;2.03;;
12383;SDS011;6256;63.808;20.336;2022-10-16T10:07:16;2.70;;;1.70;;
12383;SDS011;6256;63.808;20.336;2022-10-16T10:09:44;2.47;;;1.63;;
12383;SDS011;6256;63.808;20.336;2022-10-16T10:14:48;5.60;;;1.73;;
12383;SDS011;6256;63.808;20.336;2022-10-16T10:19:47;3.57;;;1.93;;
12383;SDS011;6256;63.808;20.336;2022-10-16T10:22:58;4.10;;;2.40;;
12383;SDS011;6256;63.808;20.336;2022-10-16T10:30:30;7.03;;;3.17;;
12383;SDS011;6256;63.808;20.336;2022-10-16T10:35:56;3.73;;;3.10;;
12383;SDS011;6256;63.808;20.336;2022-10-16T10:43:52;5.07;;;3.40;;
12383;SDS011;6256;63.808;20.336;2022-10-16T10:46:42;5.37;;;3.20;;
12383;SDS011;6256;63.808;20.336;2022-10-16T10:52:25;3.90;;;2.77;;
12383;SDS011;6256;63.808;20.336;2022-10-16T11:01:08;4.40;;;2.93;;
12383;SDS011;6256;63.808;20.336;2022-10-16T11:06:40;4.90;;;3.73;;
12383;SDS011;6256;63.808;20.336;2022-10-16T11:09:12;3.40;;;3.10;;
12383;SDS011;6256;63.808;20.336;2022-10-16T11:11:58;4.03;;;2.70;;
12383;SDS011;6256;63.808;20.336;2022-10-16T11:14:36;4.27;;;3.20;;
12383;SDS011;6256;63.808;20.336;2022-10-16T11:17:13;2.97;;;2.50;;
12383;SDS011;6256;63.808;20.336;2022-10-16T11:19:54;4.90;;;2.67;;
12383;SDS011;6256;63.808;20.336;2022-10-16T11:25:04;3.93;;;2.40;;
12383;SDS011;6256;63.808;20.336;2022-10-16T11:30:25;3.77;;;2.30;;
12383;SDS011;6256;63.808;20.336;2022-10-16T11:37:59;2.30;;;2.10;;
12383;SDS011;6256;63.808;20.336;2022-10-16T11:40:32;3.00;;;1.90;;
12383;SDS011;6256;63.808;20.336;2022-10-16T11:43:17;2.90;;;2.03;;
12383;SDS011;6256;63.808;20.336;2022-10-16T11:45:52;2.50;;;2.13;;
12383;SDS011;6256;63.808;20.336;2022-10-16T11:48:23;3.27;;;1.90;;
12383;SDS011;6256;63.808;20.336;2022-10-16T11:53:50;2.20;;;1.93;;
12383;SDS011;6256;63.808;20.336;2022-10-16T11:56:20;2.73;;;1.63;;
12383;SDS011;6256;63.808;20.336;2022-10-16T12:06:55;2.33;;;1.90;;
12383;SDS011;6256;63.808;20.336;2022-10-16T12:09:29;2.80;;;2.20;;
12383;SDS011;6256;63.808;20.336;2022-10-16T12:11:59;3.33;;;1.93;;
12383;SDS011;6256;63.808;20.336;2022-10-16T12:16:57;2.03;;;1.77;;
12383;SDS011;6256;63.808;20.336;2022-10-16T12:19:25;3.50;;;2.00;;
12383;SDS011;6256;63.808;20.336;2022-10-16T12:21:55;2.87;;;2.20;;
12383;SDS011;6256;63.808;20.336;2022-10-16T12:26:59;2.67;;;1.97;;
12383;SDS011;6256;63.808;20.336;2022-10-16T12:31:57;3.57;;;2.40;;
12383;SDS011;6256;63.808;20.336;2022-10-16T12:34:26;2.80;;;2.27;;
12383;SDS011;6256;63.808;20.336;2022-10-16T12:36:56;3.97;;;2.00;;
12383;SDS011;6256;63.808;20.336;2022-10-16T12:39:33;2.63;;;2.07;;
12383;SDS011;6256;63.808;20.336;2022-10-16T12:42:03;4.00;;;2.17;;
12383;SDS011;6256;63.808;20.336;2022-10-16T12:44:34;2.70;;;2.10;;
12383;SDS011;6256;63.808;20.336;2022-10-16T12:47:01;3.93;;;2.00;;
12383;SDS011;6256;63.808;20.336;2022-10-16T12:51:53;3.20;;;2.10;;
12383;SDS011;6256;63.808;20.336;2022-10-16T12:54:25;2.77;;;2.07;;
12383;SDS011;6256;63.808;20.336;2022-10-16T13:00:10;2.20;;;2.00;;
12383;SDS011;6256;63.808;20.336;2022-10-16T13:05:42;2.43;;;1.63;;
12383;SDS011;6256;63.808;20.336;2022-10-16T13:24:40;1.70;;;1.60;;
12383;SDS011;6256;63.808;20.336;2022-10-16T13:30:07;1.97;;;1.80;;
12383;SDS011;6256;63.808;20.336;2022-10-16T13:32:46;2.90;;;2.20;;
12383;SDS011;6256;63.808;20.336;2022-10-16T13:35:21;2.80;;;2.20;;
12383;SDS011;6256;63.808;20.336;2022-10-16T13:38:02;3.10;;;2.30;;
12383;SDS011;6256;63.808;20.336;2022-10-16T13:43:21;2.77;;;2.10;;
12383;SDS011;6256;63.808;20.336;2022-10-16T13:45:57;3.63;;;2.10;;
12383;SDS011;6256;63.808;20.336;2022-10-16T13:48:26;2.90;;;2.10;;
12383;SDS011;6256;63.808;20.336;2022-10-16T13:51:03;2.20;;;1.80;;
12383;SDS011;6256;63.808;20.336;2022-10-16T13:53:32;4.53;;;2.07;;
12383;SDS011;6256;63.808;20.336;2022-10-16T13:55:59;2.43;;;2.00;;
12383;SDS011;6256;63.808;20.336;2022-10-16T13:58:26;4.17;;;2.20;;
12383;SDS011;6256;63.808;20.336;2022-10-16T14:00:53;3.40;;;2.13;;
12383;SDS011;6256;63.808;20.336;2022-10-16T14:03:28;3.40;;;1.90;;
12383;SDS011;6256;63.808;20.336;2022-10-16T14:05:56;2.67;;;2.00;;
12383;SDS011;6256;63.808;20.336;2022-10-16T14:08:29;2.90;;;2.00;;
12383;SDS011;6256;63.808;20.336;2022-10-16T14:10:56;4.43;;;2.00;;
12383;SDS011;6256;63.808;20.336;2022-10-16T14:13:43;3.87;;;1.87;;
12383;SDS011;6256;63.808;20.336;2022-10-16T14:16:11;2.67;;;1.67;;
12383;SDS011;6256;63.808;20.336;2022-10-16T14:18:45;1.97;;;1.50;;
12383;SDS011;6256;63.808;20.336;2022-10-16T14:21:16;3.93;;;2.03;;
12383;SDS011;6256;63.808;20.336;2022-10-16T14:23:42;2.33;;;1.93;;
12383;SDS011;6256;63.808;20.336;2022-10-16T14:28:34;3.53;;;1.93;;
12383;SDS011;6256;63.808;20.336;2022-10-16T14:31:02;1.97;;;1.37;;
12383;SDS011;6256;63.808;20.336;2022-10-16T14:33:46;2.33;;;1.90;;
12383;SDS011;6256;63.808;20.336;2022-10-16T14:36:13;2.03;;;1.80;;
12383;SDS011;6256;63.808;20.336;2022-10-16T14:41:45;1.83;;;1.47;;
12383;SDS011;6256;63.808;20.336;2022-10-16T14:44:12;1.40;;;1.30;;
12383;SDS011;6256;63.808;20.336;2022-10-16T14:46:42;2.23;;;1.40;;
12383;SDS011;6256;63.808;20.336;2022-10-16T14:51:34;1.63;;;1.20;;
12383;SDS011;6256;63.808;20.336;2022-10-16T14:54:01;0.90;;;0.90;;
12383;SDS011;6256;63.808;20.336;2022-10-16T14:56:29;2.03;;;1.20;;
12383;SDS011;6256;63.808;20.336;2022-10-16T15:01:54;0.90;;;0.73;;
12383;SDS011;6256;63.808;20.336;2022-10-16T15:04:19;2.87;;;0.90;;
12383;SDS011;6256;63.808;20.336;2022-10-16T15:06:45;0.77;;;0.67;;
12383;SDS011;6256;63.808;20.336;2022-10-16T15:09:11;0.60;;;0.60;;
12383;SDS011;6256;63.808;20.336;2022-10-16T15:11:37;1.60;;;0.60;;
12383;SDS011;6256;63.808;20.336;2022-10-16T15:14:03;0.63;;;0.63;;
12383;SDS011;6256;63.808;20.336;2022-10-16T15:16:29;0.83;;;0.60;;
12383;SDS011;6256;63.808;20.336;2022-10-16T15:18:56;0.70;;;0.70;;
12383;SDS011;6256;63.808;20.336;2022-10-16T15:21:24;0.70;;;0.70;;
12383;SDS011;6256;63.808;20.336;2022-10-16T15:23:52;0.50;;;0.50;;
12383;SDS011;6256;63.808;20.336;2022-10-16T15:26:18;0.50;;;0.50;;
12383;SDS011;6256;63.808;20.336;2022-10-16T15:28:43;0.40;;;0.40;;
12383;SDS011;6256;63.808;20.336;2022-10-16T15:31:09;0.83;;;0.50;;
12383;SDS011;6256;63.808;20.336;2022-10-16T15:33:35;0.57;;;0.50;;
12383;SDS011;6256;63.808;20.336;2022-10-16T15:36:04;0.50;;;0.50;;
12383;SDS011;6256;63.808;20.336;2022-10-16T15:38:30;0.40;;;0.40;;
12383;SDS011;6256;63.808;20.336;2022-10-16T15:40:55;0.30;;;0.30;;
12383;SDS011;6256;63.808;20.336;2022-10-16T15:43:22;0.50;;;0.50;;
12383;SDS011;6256;63.808;20.336;2022-10-16T15:45:57;0.50;;;0.50;;
12383;SDS011;6256;63.808;20.336;2022-10-16T15:48:28;0.30;;;0.30;;
12383;SDS011;6256;63.808;20.336;2022-10-16T15:50:55;0.50;;;0.50;;
12383;SDS011;6256;63.808;20.336;2022-10-16T15:53:21;0.40;;;0.40;;
12383;SDS011;6256;63.808;20.336;2022-10-16T15:55:47;0.60;;;0.60;;
12383;SDS011;6256;63.808;20.336;2022-10-16T15:58:12;0.77;;;0.53;;
12383;SDS011;6256;63.808;20.336;2022-10-16T16:00:38;1.03;;;0.97;;
12383;SDS011;6256;63.808;20.336;2022-10-16T16:03:04;1.03;;;0.83;;
12383;SDS011;6256;63.808;20.336;2022-10-16T16:05:29;0.70;;;0.70;;
12383;SDS011;6256;63.808;20.336;2022-10-16T16:07:56;0.57;;;0.57;;
12383;SDS011;6256;63.808;20.336;2022-10-16T16:10:23;0.87;;;0.83;;
12383;SDS011;6256;63.808;20.336;2022-10-16T16:12:49;0.50;;;0.50;;
12383;SDS011;6256;63.808;20.336;2022-10-16T16:15:17;0.40;;;0.40;;
12383;SDS011;6256;63.808;20.336;2022-10-16T16:17:46;0.60;;;0.60;;
12383;SDS011;6256;63.808;20.336;2022-10-16T16:20:12;0.40;;;0.40;;
12383;SDS011;6256;63.808;20.336;2022-10-16T16:22:38;0.50;;;0.50;;
12383;SDS011;6256;63.808;20.336;2022-10-16T16:25:04;0.47;;;0.40;;
12383;SDS011;6256;63.808;20.336;2022-10-16T16:27:30;0.40;;;0.40;;
12383;SDS011;6256;63.808;20.336;2022-10-16T16:30:00;0.60;;;0.60;;
12383;SDS011;6256;63.808;20.336;2022-10-16T16:32:28;0.40;;;0.40;;
12383;SDS011;6256;63.808;20.336;2022-10-16T16:34:54;0.60;;;0.60;;
12383;SDS011;6256;63.808;20.336;2022-10-16T16:37:20;0.57;;;0.57;;
12383;SDS011;6256;63.808;20.336;2022-10-16T16:39:45;0.40;;;0.40;;
12383;SDS011;6256;63.808;20.336;2022-10-16T16:42:11;0.40;;;0.40;;
12383;SDS011;6256;63.808;20.336;2022-10-16T16:44:37;0.30;;;0.30;;
12383;SDS011;6256;63.808;20.336;2022-10-16T16:47:03;0.43;;;0.43;;
12383;SDS011;6256;63.808;20.336;2022-10-16T16:49:30;0.40;;;0.40;;
12383;SDS011;6256;63.808;20.336;2022-10-16T16:51:57;1.60;;;0.90;;
12383;SDS011;6256;63.808;20.336;2022-10-16T16:54:22;1.00;;;0.90;;
12383;SDS011;6256;63.808;20.336;2022-10-16T16:56:48;0.80;;;0.60;;
12383;SDS011;6256;63.808;20.336;2022-10-16T16:59:15;0.80;;;0.60;;
12383;SDS011;6256;63.808;20.336;2022-10-16T17:01:43;1.40;;;0.70;;
12383;SDS011;6256;63.808;20.336;2022-10-16T17:04:09;0.73;;;0.70;;
12383;SDS011;6256;63.808;20.336;2022-10-16T17:06:35;0.53;;;0.53;;
12383;SDS011;6256;63.808;20.336;2022-10-16T17:09:02;0.70;;;0.70;;
12383;SDS011;6256;63.808;20.336;2022-10-16T17:11:29;1.30;;;1.20;;
12383;SDS011;6256;63.808;20.336;2022-10-16T17:13:55;1.10;;;0.97;;
12383;SDS011;6256;63.808;20.336;2022-10-16T17:16:26;0.60;;;0.60;;
12383;SDS011;6256;63.808;20.336;2022-10-16T17:18:54;0.37;;;0.37;;